Terminal Aerodrome Forecast
Issued by NWS

Home | Current Version | Previous Version | Text Only | Print | Product List | Glossary On
Versions: 1 2 3 4 5 6 7 8 9 10 11 12 13 14 15 16 17
375
FTUS43 KJKL 211739
TAFSME
TAF
KSME 211739Z 2118/2218 25006KT P6SM FEW070 SCT250
     FM220000 VRB03KT P6SM FEW100 SCT250
     FM221100 00000KT P6SM BKN050
     FM221300 VRB03KT P6SM -SHRA VCTS BKN050CB=

USA.gov is the U.S. government's official web portal to all federal, state and local government web resources and services.